Alberto Martínez

Olheiro-Chefe - Oviedo
18 Dez 2027
Sábado
Processo

Personalidade

Adaptabilidade (13) Ambição (17) Controvérsia (12) Lealdade (1) Pressão (10) Profissionalismo (8) Espírito Esportivo (10) Temperamento (20)

Perfil

Estilo de Treinamento Democrático
Licença Continental C
Determinação 11
Gestão de Pessoas 7
Motivação 10
Disciplina 7
Satisfação no Trabalho
92%
Fadiga
0%
Função Olheiro-Chefe
Salário 70.2K p/s
Contrato 14.03.2030

Desempenho

Comportamento Bom
Eficácia do Treinamento
45%
Desenvolvimento do Jogador
60%
Prevenção de Lesões
60%
Implementação Tática
40%

Monitorando agora

82
Jogador Clube Status Habilidade Confiança Observado Última observação Último voto
Esteban de Lima Tacuarembo Ativo 95 / 104 40% 5 26.08.2027 -
Kaick FC Dallas Ativo 98 / 101 40% 1 26.08.2027 -
Hosea Michael Remo Stars Ativo 94 / 86 40% 1 26.08.2027 -
Simone Kosijer Triestina Ativo 97 / 99 40% 4 16.08.2027 -
Izan Merino Málaga Ativo 128 / 136 40% 1 16.08.2027 -
Chibueze Oputa Rangers International Ativo 87 / 89 40% 4 12.08.2027 -
Facundo Balatti Penarol Ativo 96 / 108 40% 2 12.08.2027 -
Santino Gatti Belgrano Ativo 93 / 113 40% 1 12.08.2027 -
Juan Giménez Athletic Bilbao Ativo 130 / 117 40% 1 11.08.2027 -
Halam Loboa Osasuna Ativo 116 / 131 40% 1 11.08.2027 -
Augusto Bando Ascoli Ativo 101 / 126 40% 1 11.08.2027 -
Alessio Insignito Spezia Ativo 95 / 117 40% 1 10.08.2027 -
Musa Danjuma Hatayspor Ativo 82 / 95 40% 1 10.08.2027 -
Mattia Puzone Siracusa Ativo 105 / 107 40% 1 10.08.2027 -
Jose Rodriguez La Equidad Ativo 91 / 95 40% 7 08.08.2027 -
Wilmar Borja La Equidad Ativo 97 / 115 40% 3 06.08.2027 -
T-Jay Parfitt Colchester United Ativo 99 / 99 40% 3 06.08.2027 -
Rafael Vargas Cortulua Ativo 90 / 94 40% 6 05.08.2027 -
Manuel Lopez Valledupar Ativo 99 / 106 40% 2 05.08.2027 -
Victor Martinez Atletico Venezuela Ativo 83 / 95 40% 2 04.08.2027 -
Mats Egbring Heerenveen Ativo 98 / 111 40% 1 04.08.2027 -
Kazunari Kita Real Sociedad Ativo 110 / 111 40% 1 04.08.2027 Rejeitar
Miguel Figueiredo Benfica Ativo 121 / 116 40% 6 02.08.2027 -
Daniel Banjaqui Benfica Ativo 117 / 122 40% 10 02.08.2027 -
Saba Kharebashvili Basaksehir Ativo 113 / 144 40% 5 01.08.2027 -
Bastien Meupiyou Alverca Ativo 130 / 130 40% 6 01.08.2027 -
Salvador Blopá Sporting CP Ativo 113 / 136 40% 2 30.07.2027 -
Gady Beyuku Modena Ativo 110 / 131 40% 2 28.07.2027 -
Dylan Lawlor Cardiff City Ativo 115 / 124 40% 4 27.07.2027 -
Ismaël Baouf Cambuur Ativo 118 / 126 40% 4 27.07.2027 -
Teo Rodríguez Pagano San Lorenzo Ativo 120 / 125 40% 4 24.07.2027 -
Joe Knight Stevenage Ativo 103 / 114 40% 2 17.07.2027 -
Alexis Vossah Toulouse FC Rejeitado 118 / 122 40% 6 15.07.2027 Rejeitar
Louis Leroux FC Nantes Ativo 136 / 138 40% 4 15.07.2027 -
Victor Corona Santos Laguna Ativo 98 / 124 40% 2 14.07.2027 -
Joe Bauress Grimsby Town Ativo 84 / 94 40% 1 12.07.2027 -
Alessandro Ventre Vis Pesaro Ativo 94 / 97 40% 1 12.07.2027 -
Milan Roganović Partizan Ativo 107 / 113 40% 5 11.07.2027 -
José Neto Alverca Rejeitado 120 / 132 40% 4 07.07.2027 Rejeitar
Jenson Jones Peterborough United Ativo 100 / 95 40% 2 07.07.2027 -
Fabián Correa Barranquilla Ativo 80 / 90 40% 2 06.07.2027 -
Jonathan Bland Barnsley Ativo 112 / 120 40% 4 05.07.2027 -
José Pachuca Puebla Ativo 107 / 102 40% 3 05.07.2027 -
Toni Tamarit Alverca Ativo 113 / 130 40% 1 30.06.2027 -
Riley Owen Bristol Rovers Ativo 105 / 118 40% 4 27.06.2027 -
Pape Diong Westerlo Ativo 108 / 112 40% 3 26.06.2027 -
Alpha Touré FC Metz Ativo 114 / 123 40% 2 22.06.2027 -
Mattia Mannini Juve Stabia Ativo 111 / 125 40% 2 21.06.2027 -
Martim Cunha Porto Ativo 104 / 106 40% 4 20.06.2027 -
Marco Oroná Antofagasta Ativo 106 / 109 40% 1 17.06.2027 -
Rubén Pulido Leganés Ativo 119 / 129 69% 1 14.06.2027 Aprovar
Afriyie Sulemana Hasaacas Ativo 99 / 88 40% 3 11.06.2027 -
Ezra Mayers West Ham United Ativo 123 / 137 40% 3 10.06.2027 -
Felipe Faúndez O'Higgins Ativo 108 / 104 40% 1 09.06.2027 -
Rubén Sobrino Cultural Leonesa Perdido 127 / 116 69% 1 06.06.2027 -
Riyad Idrissi Cagliari Ativo 117 / 132 40% 1 05.06.2027 -
Elie N'Gatta Sochaux Ativo 93 / 96 40% 1 31.01.2027 -
Joaquin Seys Club Brugge Ativo 120 / 127 40% 1 31.01.2027 -
Jorge Salinas Racing Santander Ativo 127 / 129 40% 3 30.01.2027 -
Yassine Khalifi Charleroi Ativo 103 / 101 40% 2 28.01.2027 -
James Dornelly Peterborough United Ativo 107 / 99 40% 2 23.01.2027 -
Ignacio Perruzzi San Lorenzo Ativo 118 / 129 40% 2 22.01.2027 -
Agustín Obregón River Plate Ativo 101 / 111 40% 1 20.01.2027 -
Davinchi Getafe Ativo 114 / 129 69% 1 18.01.2027 Aprovar
Lucas Agazzi Benfica Ativo 114 / 133 40% 1 12.01.2027 -
Arjan Malić Sturm Graz Ativo 116 / 121 40% 1 05.01.2027 -
Mohammed El Âdfaoui KAA Gent Ativo 114 / 118 40% 1 05.01.2027 -
Kyriani Sabbe Club Brugge Ativo 116 / 125 40% 1 05.01.2027 -
Nazareno Kihm Ferro Carril Oeste Ativo 105 / 118 40% 1 01.01.2027 -
Hugo Cuypers Monterrey Ativo 126 / 134 40% 1 24.08.2026 -
Jhojan Julio Queretaro Ativo 112 / 114 40% 1 24.08.2026 -
Carlos Sarabia Millonarios Ativo 107 / 113 40% 1 12.08.2026 -
Óscar Plano Leganés Ativo 137 / 129 69% 1 10.08.2026 Aprovar
Ian Garguez Palestino Ativo 109 / 103 40% 1 10.08.2026 -
Ezequiel Burdin Defensa y Justicia Ativo 111 / 108 40% 1 10.08.2026 -
Juan Pablo De la Reta Maipú Ativo 106 / 116 40% 1 09.08.2026 -
Valentín Aguiñagalde Temperley Ativo 107 / 105 40% 1 04.08.2026 -
Thiago Helguera Braga Ativo 123 / 129 40% 1 04.08.2026 -
Diogo Bagüí Tijuana Ativo 112 / 114 40% 1 03.08.2026 -
Santino Barbi Talleres Ativo 114 / 105 40% 1 02.08.2026 -
Santiago Silva Boston River Ativo 125 / 112 40% 1 02.08.2026 -
Ezequiel Centurión River Plate Ativo 119 / 112 40% 1 02.08.2026 -